Time;durP1;ratioP1;P1;durP2;ratioP2;P2;SDS_P1;SDS_P2;PMS_P1;PMS_P2;Temp;Humidity;BMP_temperature;BMP_pressure;BME280_temperature;BME280_humidity;BME280_pressure;Samples;Min_cycle;Max_cycle;Signal;HPM_P1;HPM_P2
2023/10/21 00:01:27;;;;;;;13.75;4.25;;;;;;;11.03;100.00;98184.75;4993573;28;20026;-74
2023/10/21 00:03:52;;;;;;;18.25;4.82;;;;;;;11.03;100.00;98176.69;4993400;28;20376;-73
2023/10/21 00:06:18;;;;;;;12.85;4.50;;;;;;;11.02;100.00;98180.38;5010916;28;20033;-74
2023/10/21 00:08:43;;;;;;;12.45;4.15;;;;;;;11.05;100.00;98185.41;5011037;28;20045;-73
2023/10/21 00:11:09;;;;;;;11.52;3.65;;;;;;;11.05;100.00;98185.41;5011310;28;20096;-73
2023/10/21 00:13:35;;;;;;;14.20;4.30;;;;;;;11.05;100.00;98187.25;4993015;28;20030;-73
2023/10/21 00:16:01;;;;;;;17.00;4.07;;;;;;;11.05;100.00;98195.31;5010584;28;20045;-73
2023/10/21 00:18:27;;;;;;;14.32;4.90;;;;;;;11.05;100.00;98196.16;5010718;28;20052;-73
2023/10/21 00:20:55;;;;;;;17.02;4.32;;;;;;;11.05;100.00;98201.53;5010623;28;20025;-74
2023/10/21 00:23:22;;;;;;;12.77;4.60;;;;;;;11.06;100.00;98202.38;4992908;28;20080;-74
2023/10/21 00:25:47;;;;;;;18.17;5.18;;;;;;;11.06;100.00;98213.94;5010417;28;20018;-74
2023/10/21 00:28:12;;;;;;;16.40;5.07;;;;;;;11.08;100.00;98216.47;4993248;28;20026;-73
2023/10/21 00:30:38;;;;;;;16.58;5.18;;;;;;;11.09;100.00;98213.59;4992598;28;20104;-73
2023/10/21 00:33:03;;;;;;;15.88;4.78;;;;;;;11.12;100.00;98215.91;5008531;28;20104;-74
2023/10/21 00:35:31;;;;;;;14.27;5.03;;;;;;;11.14;100.00;98221.09;5010506;28;20041;-73
2023/10/21 00:37:56;;;;;;;13.50;5.03;;;;;;;11.13;100.00;98227.53;4992477;28;20064;-73
2023/10/21 00:40:21;;;;;;;17.13;5.20;;;;;;;11.13;100.00;98225.66;5010405;28;20036;-74
2023/10/21 00:42:47;;;;;;;14.50;5.38;;;;;;;11.15;100.00;98237.06;5010125;28;20446;-74
2023/10/21 00:45:12;;;;;;;16.08;5.22;;;;;;;11.13;100.00;98230.22;5010032;28;20033;-74
2023/10/21 00:47:37;;;;;;;18.52;5.85;;;;;;;11.15;100.00;98233.53;5012176;28;20111;-73
2023/10/21 00:50:04;;;;;;;16.95;5.05;;;;;;;11.15;100.00;98247.81;5025638;28;20026;-74
2023/10/21 00:52:30;;;;;;;18.08;5.13;;;;;;;11.15;100.00;98241.59;5008641;28;20034;-73
2023/10/21 00:54:58;;;;;;;16.05;5.60;;;;;;;11.13;100.00;98243.66;5024918;28;20048;-74
2023/10/21 00:57:23;;;;;;;18.17;5.82;;;;;;;11.12;100.00;98252.72;5024863;28;20459;-73
2023/10/21 00:59:49;;;;;;;16.15;5.95;;;;;;;11.14;100.00;98248.00;5024927;28;20088;-74
2023/10/21 01:02:17;;;;;;;13.63;4.82;;;;;;;11.13;100.00;98260.59;5009623;28;20459;-76
2023/10/21 01:04:43;;;;;;;15.13;5.13;;;;;;;11.13;100.00;98257.91;5009265;28;20041;-76
2023/10/21 01:07:16;;;;;;;19.20;5.22;;;;;;;11.15;100.00;98263.94;5009303;28;20139;-76
2023/10/21 01:09:42;;;;;;;12.88;4.53;;;;;;;11.16;100.00;98262.94;5007690;28;20404;-76
2023/10/21 01:12:08;;;;;;;15.73;4.95;;;;;;;11.15;100.00;98269.31;5008896;28;20113;-76
2023/10/21 01:14:33;;;;;;;17.50;4.70;;;;;;;11.15;100.00;98271.16;5023905;28;20443;-76
2023/10/21 01:16:58;;;;;;;15.02;4.40;;;;;;;11.13;100.00;98263.28;5007528;28;20060;-76
2023/10/21 01:19:23;;;;;;;17.60;5.32;;;;;;;11.15;100.00;98268.47;5008894;28;20022;-76
2023/10/21 01:21:49;;;;;;;16.05;4.82;;;;;;;11.15;100.00;98277.38;5008815;28;20278;-76
2023/10/21 01:24:14;;;;;;;13.23;4.50;;;;;;;11.16;100.00;98273.69;5008946;28;20103;-76
2023/10/21 01:26:39;;;;;;;16.65;5.15;;;;;;;11.19;100.00;98280.56;5007106;28;20060;-76
2023/10/21 01:29:10;;;;;;;16.75;5.07;;;;;;;11.20;100.00;98290.31;5008883;28;20025;-76
2023/10/21 01:31:36;;;;;;;16.00;4.93;;;;;;;11.23;100.00;98284.56;5008822;28;20029;-76
2023/10/21 01:34:01;;;;;;;17.02;5.30;;;;;;;11.24;100.00;98298.84;5008692;28;20498;-76
2023/10/21 01:36:27;;;;;;;17.35;5.80;;;;;;;11.26;100.00;98296.78;5008781;28;20026;-76
2023/10/21 01:38:52;;;;;;;16.48;4.88;;;;;;;11.26;100.00;98294.09;5023742;28;20030;-76
2023/10/21 01:41:18;;;;;;;17.67;5.90;;;;;;;11.27;100.00;98301.16;5007177;28;20030;-76
2023/10/21 01:43:44;;;;;;;17.73;5.10;;;;;;;11.29;100.00;98299.13;5008038;28;20414;-76
2023/10/21 01:46:09;;;;;;;15.32;5.13;;;;;;;11.26;100.00;98303.03;5012657;28;20030;-76
2023/10/21 01:48:35;;;;;;;15.70;5.20;;;;;;;11.29;100.00;98308.03;5026405;28;20127;-76
2023/10/21 01:51:04;;;;;;;16.17;4.65;;;;;;;11.32;100.00;98306.84;5011151;28;20123;-76
2023/10/21 01:53:31;;;;;;;17.67;5.53;;;;;;;11.34;100.00;98318.25;5011166;28;20034;-76
2023/10/21 01:56:03;;;;;;;16.30;5.38;;;;;;;11.36;100.00;98311.69;5009692;28;20034;-76
2023/10/21 01:58:30;;;;;;;17.20;5.47;;;;;;;11.35;100.00;98322.63;5026084;28;20100;-76
2023/10/21 02:00:56;;;;;;;16.27;4.85;;;;;;;11.36;100.00;98310.81;5025896;28;20124;-76
2023/10/21 02:03:21;;;;;;;14.18;5.53;;;;;;;11.34;100.00;98313.69;5009467;28;20125;-76
2023/10/21 02:05:46;;;;;;;16.02;5.78;;;;;;;11.37;100.00;98325.94;5026092;28;20092;-76
2023/10/21 02:08:11;;;;;;;20.30;5.13;;;;;;;11.37;100.00;98334.03;5026008;28;20467;-76
2023/10/21 02:10:41;;;;;;;11.98;4.55;;;;;;;11.35;100.00;98333.38;5010995;28;20470;-76
2023/10/21 02:13:06;;;;;;;17.90;5.47;;;;;;;11.37;100.00;98328.63;5009309;28;20038;-76
2023/10/21 02:15:35;;;;;;;11.38;4.55;;;;;;;11.36;100.00;98338.56;5009491;28;20136;-76
2023/10/21 02:18:00;;;;;;;14.85;5.13;;;;;;;11.36;100.00;98341.25;5009620;28;20061;-76
2023/10/21 02:20:25;;;;;;;19.45;5.38;;;;;;;11.35;100.00;98344.13;5026189;28;20034;-76
2023/10/21 02:22:50;;;;;;;16.60;5.70;;;;;;;11.38;100.00;98351.84;5025965;28;20080;-76
2023/10/21 02:25:16;;;;;;;15.80;5.50;;;;;;;11.36;100.00;98348.47;5009439;28;20163;-76
2023/10/21 02:27:42;;;;;;;15.40;4.97;;;;;;;11.34;100.00;98356.72;5010430;28;20026;-76
2023/10/21 02:30:16;;;;;;;13.57;4.90;;;;;;;11.35;100.00;98362.97;5009350;28;20337;-76
2023/10/21 02:32:45;;;;;;;16.35;5.50;;;;;;;11.34;100.00;98361.28;5010395;28;20029;-76
2023/10/21 02:35:11;;;;;;;;;;;;;;;11.38;100.00;98362.59;5009565;28;20112;-76
2023/10/21 02:37:36;;;;;;;13.98;4.75;;;;;;;11.33;100.00;98368.50;5011341;28;20052;-75
2023/10/21 02:40:03;;;;;;;15.85;5.30;;;;;;;11.33;100.00;98359.59;5013085;28;20036;-74
2023/10/21 02:42:29;;;;;;;14.93;4.97;;;;;;;11.30;100.00;98360.81;5012181;28;20113;-74
2023/10/21 02:44:54;;;;;;;14.85;4.88;;;;;;;11.30;100.00;98366.19;5013432;28;20053;-75
2023/10/21 02:47:19;;;;;;;18.35;5.20;;;;;;;11.30;100.00;98363.50;4976251;28;1061588;-75
2023/10/21 02:49:45;;;;;;;16.30;5.20;;;;;;;11.28;100.00;98372.75;4996930;28;20068;-75
2023/10/21 02:52:10;;;;;;;16.90;5.88;;;;;;;11.27;100.00;98379.13;5014222;28;20066;-75
2023/10/21 02:54:35;;;;;;;18.17;5.25;;;;;;;11.29;100.00;98383.31;5014508;28;20036;-75
2023/10/21 02:57:01;;;;;;;18.48;5.45;;;;;;;11.28;100.00;98380.81;4996323;28;20132;-74
2023/10/21 02:59:26;;;;;;;16.55;4.97;;;;;;;11.27;100.00;98387.19;5015130;28;20101;-75
2023/10/21 03:01:52;;;;;;;17.65;5.18;;;;;;;11.24;100.00;98392.94;5012817;28;20041;-75
2023/10/21 03:04:17;;;;;;;16.42;5.35;;;;;;;11.26;100.00;98398.97;5014404;28;20037;-75
2023/10/21 03:06:43;;;;;;;13.98;5.18;;;;;;;11.23;100.00;98396.63;4996041;28;20030;-74
2023/10/21 03:09:08;;;;;;;17.27;5.45;;;;;;;11.23;100.00;98402.00;5014455;28;20022;-75
2023/10/21 03:11:33;;;;;;;17.70;5.22;;;;;;;11.21;100.00;98404.03;5014373;28;20060;-75
2023/10/21 03:13:59;;;;;;;15.82;4.82;;;;;;;11.19;100.00;98399.66;5014983;28;20038;-74
2023/10/21 03:16:24;;;;;;;16.10;5.10;;;;;;;11.22;100.00;98400.34;4997929;28;20022;-75
2023/10/21 03:18:51;;;;;;;14.90;4.72;;;;;;;11.19;100.00;98405.06;5013595;28;20034;-75
2023/10/21 03:21:16;;;;;;;20.27;5.53;;;;;;;11.21;100.00;98404.03;5013547;28;20041;-75
2023/10/21 03:23:42;;;;;;;15.95;5.10;;;;;;;11.18;100.00;98408.75;5013539;28;20446;-75
2023/10/21 03:26:07;;;;;;;16.33;4.82;;;;;;;11.19;100.00;98413.13;5013249;28;20030;-75
2023/10/21 03:28:34;;;;;;;14.98;4.85;;;;;;;11.19;100.00;98420.34;5013407;28;20368;-75
2023/10/21 03:31:03;;;;;;;16.42;4.80;;;;;;;11.18;100.00;98422.19;4996031;28;20394;-75
2023/10/21 03:33:29;;;;;;;17.35;4.95;;;;;;;11.17;100.00;98433.13;4995990;28;20118;-75
2023/10/21 03:35:57;;;;;;;12.82;4.30;;;;;;;11.15;100.00;98424.41;5012903;28;20022;-75
2023/10/21 03:38:23;;;;;;;16.92;4.68;;;;;;;11.13;100.00;98426.44;5012678;28;20022;-75
2023/10/21 03:41:03;;;;;;;20.55;4.70;;;;;;;11.15;100.00;98435.16;4994356;28;20088;-75
2023/10/21 03:43:29;;;;;;;16.40;4.85;;;;;;;11.14;100.00;98436.16;4993643;28;20440;-75
2023/10/21 03:45:55;;;;;;;22.48;5.25;;;;;;;11.13;100.00;98442.56;5010998;28;20025;-75
2023/10/21 03:48:21;;;;;;;15.60;4.80;;;;;;;11.10;100.00;98446.44;5003760;28;20140;-75
2023/10/21 03:50:47;;;;;;;14.40;4.80;;;;;;;11.11;100.00;98452.66;5012937;28;20041;-75
2023/10/21 03:53:14;;;;;;;14.38;4.63;;;;;;;11.10;100.00;98457.19;5010810;28;20021;-75
2023/10/21 03:55:39;;;;;;;12.52;4.30;;;;;;;11.11;100.00;98460.72;4996581;28;20128;-75
2023/10/21 03:58:05;;;;;;;14.38;4.63;;;;;;;11.10;100.00;98461.72;5011713;28;20025;-75
2023/10/21 04:00:30;;;;;;;15.77;4.82;;;;;;;11.10;100.00;98464.41;5011924;28;20029;-75
2023/10/21 04:02:55;;;;;;;12.48;3.92;;;;;;;11.09;100.00;98468.94;5012028;28;20026;-75
2023/10/21 04:05:21;;;;;;;13.10;4.00;;;;;;;11.10;100.00;98461.72;5012845;28;20032;-75
2023/10/21 04:07:46;;;;;;;9.63;3.83;;;;;;;11.10;100.00;98465.25;5011136;28;20038;-75
2023/10/21 04:10:12;;;;;;;12.20;3.95;;;;;;;11.12;100.00;98473.97;5012001;28;20053;-75
2023/10/21 04:12:39;;;;;;;11.85;4.45;;;;;;;11.13;100.00;98475.66;5011330;28;20037;-75
2023/10/21 04:15:06;;;;;;;14.48;4.97;;;;;;;11.13;100.00;98486.41;5012843;28;20100;-74
2023/10/21 04:17:33;;;;;;;11.48;3.83;;;;;;;11.16;100.00;98491.44;5017328;28;20029;-75
2023/10/21 04:19:58;;;;;;;16.65;3.97;;;;;;;11.16;100.00;98488.75;5012405;28;20034;-75
2023/10/21 04:22:23;;;;;;;15.48;4.70;;;;;;;11.18;100.00;98499.31;5012107;28;20041;-75
2023/10/21 04:24:48;;;;;;;11.90;4.50;;;;;;;11.21;100.00;98498.16;5012600;28;20490;-75
2023/10/21 04:27:14;;;;;;;17.70;4.68;;;;;;;11.24;100.00;98505.84;5024356;28;20083;-75
2023/10/21 04:29:39;;;;;;;15.25;4.78;;;;;;;11.26;100.00;98512.75;5018231;28;20113;-74
2023/10/21 04:32:05;;;;;;;15.32;4.50;;;;;;;11.26;100.00;98511.88;5008496;28;20022;-75
2023/10/21 04:34:30;;;;;;;15.52;5.15;;;;;;;11.27;100.00;98511.72;5013007;28;20056;-74
2023/10/21 04:36:55;;;;;;;16.85;5.43;;;;;;;11.26;100.00;98514.56;5013424;28;20022;-74
2023/10/21 04:39:21;;;;;;;14.85;4.15;;;;;;;11.26;100.00;98515.44;5014654;28;20060;-75
2023/10/21 04:41:49;;;;;;;17.75;5.30;;;;;;;11.26;100.00;98517.25;5012742;28;20049;-74
2023/10/21 04:44:15;;;;;;;16.80;4.50;;;;;;;11.26;100.00;98526.19;5028078;28;20191;-75
2023/10/21 04:46:40;;;;;;;16.55;4.93;;;;;;;11.25;100.00;98523.69;5010871;28;20462;-75
2023/10/21 04:49:05;;;;;;;16.55;4.97;;;;;;;11.25;100.00;98527.19;5028487;28;20136;-74
2023/10/21 04:51:31;;;;;;;21.35;5.75;;;;;;;11.25;100.00;98534.44;5010387;28;20033;-74
2023/10/21 04:53:57;;;;;;;16.55;5.28;;;;;;;11.21;100.00;98535.78;5019229;28;20096;-74
2023/10/21 04:56:24;;;;;;;22.98;5.53;;;;;;;11.21;100.00;98547.38;5010000;28;20499;-74
2023/10/21 04:58:49;;;;;;;17.20;4.93;;;;;;;11.22;100.00;98545.53;5010078;28;20034;-74
2023/10/21 05:01:16;;;;;;;17.75;5.47;;;;;;;11.19;100.00;98552.09;5027116;28;20166;-75
2023/10/21 05:03:42;;;;;;;15.52;5.65;;;;;;;11.18;100.00;98563.84;5010824;28;20026;-74
2023/10/21 05:06:08;;;;;;;22.30;5.30;;;;;;;11.17;100.00;98565.72;5012520;28;20045;-75
2023/10/21 05:08:33;;;;;;;15.27;5.13;;;;;;;11.14;100.00;98570.56;5012113;28;20029;-74
2023/10/21 05:10:59;;;;;;;16.95;4.80;;;;;;;11.11;100.00;98562.84;5010585;28;20030;-75
2023/10/21 05:13:24;;;;;;;14.98;5.07;;;;;;;11.08;100.00;98563.22;5010393;28;20069;-75
2023/10/21 05:15:50;;;;;;;18.23;5.20;;;;;;;11.04;100.00;98564.56;5012007;28;20034;-74
2023/10/21 05:18:16;;;;;;;15.35;4.65;;;;;;;10.99;100.00;98575.81;5026688;28;20430;-74
2023/10/21 05:20:41;;;;;;;17.23;5.53;;;;;;;10.96;100.00;98581.53;5009950;28;20026;-74
2023/10/21 05:23:07;;;;;;;15.70;4.63;;;;;;;10.97;100.00;98572.47;5011458;28;20277;-75
2023/10/21 05:25:33;;;;;;;16.88;5.53;;;;;;;10.98;100.00;98577.69;5011331;28;20106;-74
2023/10/21 05:27:59;;;;;;;15.93;4.82;;;;;;;10.99;100.00;98579.34;5009895;28;20057;-75
2023/10/21 05:30:24;;;;;;;14.18;4.70;;;;;;;11.00;100.00;98581.03;5011076;28;20030;-74
2023/10/21 05:32:49;;;;;;;17.38;4.90;;;;;;;11.05;100.00;98591.25;5009599;28;20328;-75
2023/10/21 05:35:15;;;;;;;15.50;4.63;;;;;;;11.08;100.00;98587.41;5011564;28;20109;-75
2023/10/21 05:37:41;;;;;;;18.88;5.32;;;;;;;11.12;100.00;98594.13;5008932;28;20021;-74
2023/10/21 05:40:07;;;;;;;14.43;4.78;;;;;;;11.13;100.00;98596.63;5010907;28;20030;-75
2023/10/21 05:42:33;;;;;;;13.93;5.00;;;;;;;11.16;100.00;98601.66;5011580;28;20121;-75
2023/10/21 05:44:58;;;;;;;19.88;4.82;;;;;;;11.22;100.00;98599.31;5011837;28;20022;-75
2023/10/21 05:47:23;;;;;;;14.73;4.90;;;;;;;11.27;100.00;98607.69;5009397;28;20121;-75
2023/10/21 05:49:49;;;;;;;12.38;4.63;;;;;;;11.30;100.00;98610.03;5010471;28;20029;-74
2023/10/21 05:52:17;;;;;;;14.15;4.07;;;;;;;11.33;100.00;98620.44;5026556;28;20021;-74
2023/10/21 05:54:42;;;;;;;16.45;4.82;;;;;;;11.36;100.00;98622.78;5011836;28;20041;-74
2023/10/21 05:57:07;;;;;;;15.88;4.53;;;;;;;11.39;100.00;98621.59;5010671;28;20014;-75
2023/10/21 05:59:33;;;;;;;15.27;4.55;;;;;;;11.42;100.00;98622.13;5010200;28;20034;-73
2023/10/21 06:01:58;;;;;;;13.75;3.83;;;;;;;11.46;100.00;98623.41;5026816;28;20034;-75
2023/10/21 06:04:23;;;;;;;18.02;4.72;;;;;;;11.50;100.00;98630.13;5013336;28;20506;-74
2023/10/21 06:06:54;;;;;;;15.27;4.97;;;;;;;11.52;100.00;98638.88;5012907;28;20121;-75
2023/10/21 06:09:19;;;;;;;18.15;5.22;;;;;;;11.56;100.00;98644.75;4996550;28;20030;-75
2023/10/21 06:11:44;;;;;;;16.58;4.47;;;;;;;11.58;100.00;98647.25;5011852;28;20181;-74
2023/10/21 06:14:09;;;;;;;18.60;5.03;;;;;;;11.62;100.00;98648.59;5012177;28;20129;-74
2023/10/21 06:16:35;;;;;;;15.90;4.13;;;;;;;11.66;100.00;98663.38;5012025;28;20030;-74
2023/10/21 06:19:00;;;;;;;18.70;4.70;;;;;;;11.67;100.00;98659.66;5010309;28;20034;-75
2023/10/21 06:21:25;;;;;;;16.73;4.85;;;;;;;11.70;100.00;98667.41;5011775;28;20053;-74
2023/10/21 06:23:51;;;;;;;14.13;4.72;;;;;;;11.72;100.00;98676.97;5011495;28;20131;-74
2023/10/21 06:26:16;;;;;;;15.15;4.28;;;;;;;11.75;100.00;98681.19;5009728;28;20030;-75
2023/10/21 06:28:42;;;;;;;13.20;4.20;;;;;;;11.79;100.00;98685.19;5026944;28;20026;-75
2023/10/21 06:31:07;;;;;;;14.75;5.00;;;;;;;11.80;100.00;98684.19;5013997;28;20045;-74
2023/10/21 06:33:34;;;;;;;16.30;4.25;;;;;;;11.83;100.00;98704.53;5029964;28;20026;-74
2023/10/21 06:35:59;;;;;;;13.77;3.90;;;;;;;11.86;100.00;98709.59;5014896;28;20204;-74
2023/10/21 06:38:24;;;;;;;11.07;3.45;;;;;;;11.88;100.00;98702.16;5029831;28;20064;-74
2023/10/21 06:40:50;;;;;;;14.48;3.85;;;;;;;11.89;100.00;98707.38;5014843;28;20042;-75
2023/10/21 06:43:15;;;;;;;15.10;4.13;;;;;;;11.92;100.00;98711.56;5015786;28;20022;-74
2023/10/21 06:45:40;;;;;;;17.23;4.07;;;;;;;11.95;100.00;98721.16;5014641;28;20034;-74
2023/10/21 06:48:06;;;;;;;12.57;3.85;;;;;;;11.95;100.00;98724.72;5014425;28;20515;-74
2023/10/21 06:50:31;;;;;;;17.35;4.75;;;;;;;11.97;100.00;98728.06;5014604;28;20171;-75
2023/10/21 06:52:57;;;;;;;12.98;3.95;;;;;;;12.00;100.00;98729.56;4985324;28;20038;-74
2023/10/21 06:55:22;;;;;;;14.50;3.90;;;;;;;12.03;100.00;98737.28;5007729;28;20425;-74
2023/10/21 06:57:50;;;;;;;14.63;3.90;;;;;;;12.04;100.00;98733.59;5013850;28;20133;-75
2023/10/21 07:00:16;;;;;;;13.52;3.92;;;;;;;12.07;100.00;98744.03;5011680;28;20022;-75
2023/10/21 07:02:41;;;;;;;13.15;3.67;;;;;;;12.09;100.00;98750.06;5011194;28;20044;-77
2023/10/21 07:05:09;;;;;;;13.98;3.65;;;;;;;12.10;100.00;98753.59;5011455;28;20127;-75
2023/10/21 07:07:40;;;;;;;9.73;3.45;;;;;;;12.13;100.00;98751.41;5011325;28;20030;-75
2023/10/21 07:10:06;;;;;;;12.50;3.45;;;;;;;12.15;100.00;98762.00;4993411;28;20040;-76
2023/10/21 07:12:32;;;;;;;11.02;3.58;;;;;;;12.15;100.00;98765.53;5010921;28;20634;-75
2023/10/21 07:14:58;;;;;;;16.42;4.18;;;;;;;12.16;100.00;98775.28;5001162;28;20108;-76
2023/10/21 07:17:23;;;;;;;8.57;3.22;;;;;;;12.15;100.00;98776.31;5010988;28;20023;-76
2023/10/21 07:19:49;;;;;;;11.07;3.72;;;;;;;12.15;100.00;98789.78;5010956;28;20032;-76
2023/10/21 07:22:15;;;;;;;9.13;3.22;;;;;;;12.11;100.00;98812.66;5010853;28;20443;-77
2023/10/21 07:24:40;;;;;;;6.15;2.47;;;;;;;12.09;100.00;98832.69;4993323;28;20026;-76
2023/10/21 07:27:06;;;;;;;5.20;2.33;;;;;;;12.03;100.00;98832.34;5010745;28;20104;-76
2023/10/21 07:29:31;;;;;;;5.60;2.25;;;;;;;11.99;100.00;98844.50;5011071;28;20382;-76
2023/10/21 07:31:57;;;;;;;4.00;1.83;;;;;;;12.00;100.00;98850.72;5010808;28;20030;-77
2023/10/21 07:34:22;;;;;;;3.95;1.42;;;;;;;11.98;100.00;98852.75;5010787;28;20565;-77
2023/10/21 07:36:47;;;;;;;2.85;1.63;;;;;;;11.97;100.00;98862.66;5010668;28;20506;-76
2023/10/21 07:39:13;;;;;;;5.05;1.27;;;;;;;11.95;100.00;98867.38;4993035;28;20029;-76
2023/10/21 07:41:38;;;;;;;7.03;1.63;;;;;;;11.94;100.00;98876.47;5009792;28;20022;-77
2023/10/21 07:44:04;;;;;;;5.38;1.80;;;;;;;11.96;100.00;98887.06;5010478;28;20072;-77
2023/10/21 07:46:29;;;;;;;3.30;1.65;;;;;;;11.98;100.00;98885.88;5010409;28;20040;-77
2023/10/21 07:48:56;;;;;;;4.57;1.70;;;;;;;11.97;100.00;98897.66;5022926;28;20099;-77
2023/10/21 07:51:22;;;;;;;6.07;1.75;;;;;;;12.01;100.00;98904.41;5008965;28;20076;-77
2023/10/21 07:53:47;;;;;;;3.38;1.40;;;;;;;12.02;100.00;98911.47;5010865;28;20061;-76
2023/10/21 07:56:13;;;;;;;8.60;1.70;;;;;;;12.00;100.00;98915.34;5009018;28;20471;-78
2023/10/21 07:58:41;;;;;;;6.85;2.00;;;;;;;11.98;100.00;98925.44;5010065;28;20357;-77
2023/10/21 08:01:06;;;;;;;1.20;1.10;;;;;;;11.96;100.00;98931.00;5002577;28;20029;-77
2023/10/21 08:03:34;;;;;;;3.22;1.45;;;;;;;11.98;100.00;98930.84;5008595;28;20241;-77
2023/10/21 08:05:59;;;;;;;5.25;1.50;;;;;;;11.97;100.00;98940.75;5008674;28;20129;-77
2023/10/21 08:08:25;;;;;;;6.97;1.85;;;;;;;12.00;100.00;98935.00;5025619;28;20040;-75
2023/10/21 08:10:51;;;;;;;4.22;1.60;;;;;;;12.02;100.00;98933.00;5011499;28;20387;-74
2023/10/21 08:13:16;;;;;;;4.15;1.58;;;;;;;12.05;100.00;98950.69;5025580;28;20029;-74
2023/10/21 08:15:41;;;;;;;5.25;1.77;;;;;;;12.05;100.00;98946.13;5009964;28;20120;-74
2023/10/21 08:18:07;;;;;;;5.80;1.73;;;;;;;12.11;100.00;98944.63;5010807;28;20048;-74
2023/10/21 08:20:32;;;;;;;8.63;2.00;;;;;;;12.14;100.00;98949.66;5010883;28;20038;-74
2023/10/21 08:22:58;;;;;;;8.10;1.85;;;;;;;12.20;100.00;98958.91;5009743;28;20110;-74
2023/10/21 08:25:24;;;;;;;2.17;1.20;;;;;;;12.27;100.00;98959.06;5010822;28;20479;-74
2023/10/21 08:27:49;;;;;;;3.72;1.60;;;;;;;12.31;100.00;98955.84;5010372;28;20475;-75
2023/10/21 08:30:15;;;;;;;5.07;1.67;;;;;;;12.37;100.00;98967.81;5010703;28;20233;-75
2023/10/21 08:32:40;;;;;;;4.22;1.20;;;;;;;12.43;100.00;98966.28;5025515;28;20029;-74
2023/10/21 08:35:06;;;;;;;3.55;1.50;;;;;;;12.46;100.00;98960.56;5009467;28;20672;-75
2023/10/21 08:37:31;;;;;;;4.95;1.70;;;;;;;12.46;100.00;98965.94;5010398;28;20036;-75
2023/10/21 08:39:57;;;;;;;2.15;1.17;;;;;;;12.48;100.00;98974.72;5025982;28;20113;-75
2023/10/21 08:42:27;;;;;;;4.18;1.52;;;;;;;12.52;100.00;98982.28;5009986;28;20460;-74
2023/10/21 08:44:58;;;;;;;4.65;1.73;;;;;;;12.52;100.00;98987.66;5010602;28;20380;-74
2023/10/21 08:47:25;;;;;;;1.73;1.27;;;;;;;12.54;100.00;98992.88;5009951;28;20116;-76
2023/10/21 08:49:52;;;;;;;4.68;1.35;;;;;;;12.56;100.00;99001.63;4992830;28;20038;-74
2023/10/21 08:52:17;;;;;;;2.47;1.30;;;;;;;12.53;100.00;99001.97;5010222;28;20500;-74
2023/10/21 08:54:46;;;;;;;5.32;1.42;;;;;;;12.56;100.00;99007.88;4992783;28;20172;-74
2023/10/21 08:57:11;;;;;;;4.85;1.70;;;;;;;12.62;100.00;98997.41;4992426;28;20029;-74
2023/10/21 08:59:38;;;;;;;2.95;1.33;;;;;;;12.65;100.00;99007.84;4992495;28;20029;-74
2023/10/21 09:02:04;;;;;;;4.50;1.45;;;;;;;12.65;100.00;99003.31;4992077;28;21069;-74
2023/10/21 09:04:31;;;;;;;4.55;1.80;;;;;;;12.68;100.00;99012.88;5010114;28;20037;-75
2023/10/21 09:06:59;;;;;;;4.32;1.38;;;;;;;12.70;100.00;99008.19;5008520;28;20026;-75
2023/10/21 09:09:28;;;;;;;7.25;1.58;;;;;;;12.70;100.00;99024.34;5009939;28;20054;-75
2023/10/21 09:12:10;;;;;;;4.93;1.50;;;;;;;12.72;100.00;99027.72;4991887;28;20112;-74
2023/10/21 09:14:56;;;;;;;6.90;1.75;;;;;;;12.72;100.00;99035.78;5004024;28;20037;-74
2023/10/21 09:17:45;;;;;;;4.72;1.55;;;;;;;12.72;100.00;99042.03;4999770;28;20108;-75
2023/10/21 09:20:17;;;;;;;4.28;1.60;;;;;;;12.70;100.00;99046.75;4991897;28;20491;-78
2023/10/21 09:22:49;;;;;;;5.97;1.35;;;;;;;12.69;100.00;99052.31;5007830;28;20034;-78
2023/10/21 09:25:22;;;;;;;3.38;1.23;;;;;;;12.70;100.00;99051.31;4991291;28;20037;-77
2023/10/21 09:27:57;;;;;;;3.42;1.58;;;;;;;12.69;100.00;99057.69;5006547;28;20046;-77
2023/10/21 09:30:25;;;;;;;5.38;1.65;;;;;;;12.68;100.00;99047.94;4991123;28;20451;-78
2023/10/21 09:32:50;;;;;;;4.50;1.60;;;;;;;12.69;100.00;99055.84;5009185;28;20022;-77
2023/10/21 09:35:25;;;;;;;5.18;1.55;;;;;;;12.72;100.00;99052.84;5008964;28;20530;-78
2023/10/21 09:37:51;;;;;;;3.50;1.63;;;;;;;12.74;100.00;99049.97;4984277;28;20403;-80
2023/10/21 09:40:17;;;;;;;8.05;2.38;;;;;;;12.75;100.00;99065.09;5009011;28;20029;-78
2023/10/21 09:42:43;;;;;;;7.38;1.65;;;;;;;12.74;100.00;99074.22;5007516;28;20527;-79
2023/10/21 09:45:10;;;;;;;2.83;1.55;;;;;;;12.77;100.00;99073.88;4991615;28;20112;-78
2023/10/21 09:47:41;;;;;;;6.00;1.67;;;;;;;12.81;100.00;99068.97;4994454;28;20476;-79
2023/10/21 09:50:10;;;;;;;7.80;1.83;;;;;;;12.85;100.00;99081.09;5007637;28;20132;-79
2023/10/21 09:53:11;;;;;;;8.65;1.52;;;;;;;12.90;100.00;99084.97;5009010;28;20026;-78
2023/10/21 09:55:37;;;;;;;8.52;2.35;;;;;;;12.95;100.00;99076.38;5009143;28;20462;-79
2023/10/21 09:58:04;;;;;;;7.82;1.27;;;;;;;13.00;100.00;99083.94;5008641;28;20109;-79
2023/10/21 10:00:30;;;;;;;6.90;1.70;;;;;;;13.01;100.00;99094.56;5007218;28;20072;-78
2023/10/21 10:02:55;;;;;;;8.30;1.88;;;;;;;13.08;100.00;99083.94;5008385;28;20057;-79
2023/10/21 10:05:22;;;;;;;9.05;1.55;;;;;;;13.11;100.00;99094.38;5010682;28;20447;-78
2023/10/21 10:07:48;;;;;;;14.70;2.60;;;;;;;13.11;100.00;99095.19;5011280;28;20025;-79
2023/10/21 10:10:16;;;;;;;5.68;1.63;;;;;;;13.11;100.00;99087.13;5011342;28;20072;-79
2023/10/21 10:12:46;;;;;;;7.13;1.75;;;;;;;13.11;100.00;99097.91;5027439;28;20242;-79
2023/10/21 10:15:39;;;;;;;10.23;2.10;;;;;;;13.15;100.00;99102.94;5012314;28;20029;-79
2023/10/21 10:18:06;;;;;;;11.52;2.20;;;;;;;13.13;100.00;99100.41;5007964;28;20034;-78
2023/10/21 10:20:32;;;;;;;8.38;2.08;;;;;;;13.12;100.00;99098.75;5012382;28;20028;-78
2023/10/21 10:23:09;;;;;;;11.77;2.28;;;;;;;13.14;100.00;99112.91;5010924;28;20344;-79
2023/10/21 10:25:42;;;;;;;10.40;2.10;;;;;;;13.17;100.00;99109.88;5003357;28;20040;-79
2023/10/21 10:28:08;;;;;;;7.60;1.70;;;;;;;13.20;100.00;99104.13;5010667;28;20022;-79
2023/10/21 10:30:34;;;;;;;9.30;2.25;;;;;;;13.21;100.00;99102.28;5028218;28;20387;-75
2023/10/21 10:33:08;;;;;;;6.65;1.90;;;;;;;13.25;100.00;99109.84;5012806;28;20033;-75
2023/10/21 10:35:40;;;;;;;11.15;2.08;;;;;;;13.28;100.00;99104.09;5011138;28;20241;-75
2023/10/21 10:38:24;;;;;;;4.28;1.80;;;;;;;13.35;100.00;99111.53;5012659;28;20018;-76
2023/10/21 10:40:51;;;;;;;14.82;2.33;;;;;;;13.38;100.00;99111.19;5020463;28;20215;-74
2023/10/21 10:43:18;;;;;;;5.55;1.50;;;;;;;13.46;100.00;99119.25;5011608;28;20385;-75
2023/10/21 10:45:43;;;;;;;10.75;2.03;;;;;;;13.52;100.00;99117.72;5012739;28;20042;-75
2023/10/21 10:48:09;;;;;;;8.80;1.80;;;;;;;13.59;100.00;99116.84;5027200;28;20091;-75
2023/10/21 10:50:36;;;;;;;8.23;2.25;;;;;;;13.62;100.00;99111.09;5012900;28;20229;-74
2023/10/21 10:53:22;;;;;;;8.45;2.35;;;;;;;13.71;100.00;99113.78;5011019;28;20026;-75
2023/10/21 10:55:57;;;;;;;14.93;2.53;;;;;;;13.75;100.00;99124.03;5012928;28;20033;-75
2023/10/21 10:58:26;;;;;;;7.70;2.10;;;;;;;13.78;100.00;99120.16;5011736;28;20024;-74
2023/10/21 11:00:52;;;;;;;9.50;1.77;;;;;;;13.78;100.00;99121.00;5011523;28;20045;-74
2023/10/21 11:03:32;;;;;;;11.82;2.13;;;;;;;13.78;100.00;99128.25;5012798;28;20018;-75
2023/10/21 11:05:59;;;;;;;5.10;1.75;;;;;;;13.77;100.00;99137.38;5011736;28;20368;-74
2023/10/21 11:08:25;;;;;;;10.13;1.95;;;;;;;13.80;98.16;99131.63;5028453;28;20542;-74
2023/10/21 11:11:00;;;;;;;10.27;2.25;;;;;;;13.87;100.00;99138.00;5012687;28;20029;-76
2023/10/21 11:13:27;;;;;;;13.90;2.72;;;;;;;13.88;96.43;99141.53;5020349;28;20349;-74
2023/10/21 11:15:55;;;;;;;10.80;2.40;;;;;;;13.85;97.41;99140.03;5010984;28;20431;-74
2023/10/21 11:18:21;;;;;;;7.65;1.90;;;;;;;13.80;97.57;99145.94;5010661;28;20200;-74